Duck, West Virginia
Current Conditions -  °F | °C
As of 11:54 PM on Monday 22 Dec 2014 (Local Time) from KCRW Reporting Station
Broken Clouds Broken Clouds  
Wind Chill: 44°   Ceiling: 20000
Heat Index: 48°   Visibility: 10mi
Dew Point: 38°   Wind: 8mph
Humidity: 68%   Direction: 110°ESE
Pressure: 29.84"   Gusts: NA
Location:  38.58°N, 80.94°W
Report Text: KCRW 230454Z 11007KT 10SM SCT100 BKN200 09/03 A2984 RMK AO2 SLP105 T00890033 401281022
Loading
Personal Weather Stations






























Interactive Weather Map New forecast layout! Learn more

10-Day Weather Forecast

Advertisements
Track Severe Weather on mobile